Amherst Junction, Wisconsin
Current Conditions -  °F | °C
As of 10:15 AM on Sunday 21 Dec 2014 (Local Time) from KSTE Reporting Station
Haze Haze  
Wind Chill: 23°   Ceiling: 500
Heat Index: 30°   Visibility: 2mi
Dew Point: 29°   Wind: 7mph
Humidity: 95%   Direction: 160°SSE
Pressure: 30.04"   Gusts: NA
Location:  44.47°N, 89.31°W
Report Text: KSTE 211615Z AUTO 16006KT 2SM BR OVC005 M01/M02 A3004 RMK AO2 T10111018
Loading
Personal Weather Stations






























Interactive Weather Map New forecast layout! Learn more

10-Day Weather Forecast

Advertisements
Track Severe Weather on mobile